createdAt,value
2023-02-13T10:32:38.154Z,23.23
2023-02-13T10:33:39.082Z,23.23
2023-02-13T10:34:39.056Z,23.25
2023-02-13T10:35:39.025Z,23.30
2023-02-13T10:36:38.968Z,23.40
2023-02-13T10:37:38.965Z,23.54
2023-02-13T10:38:38.874Z,23.67
2023-02-13T10:39:38.836Z,23.80
2023-02-13T10:40:38.807Z,23.91
2023-02-13T10:41:38.744Z,23.99
2023-02-13T10:42:38.692Z,24.03
2023-02-13T10:43:38.675Z,24.07
2023-02-13T10:44:38.570Z,24.09
2023-02-13T10:45:38.518Z,24.08
2023-02-13T10:46:38.537Z,24.07
2023-02-13T10:47:38.422Z,24.08
2023-02-13T10:48:38.369Z,24.10
2023-02-13T10:49:38.370Z,24.12
2023-02-13T10:50:38.278Z,24.14
2023-02-13T10:51:38.241Z,24.15
2023-02-13T10:52:38.187Z,24.16
2023-02-13T10:53:38.142Z,24.17
2023-02-13T10:54:38.087Z,24.18
2023-02-13T10:55:38.068Z,24.19
2023-02-13T10:56:38.024Z,24.17
2023-02-13T10:57:37.957Z,24.14
2023-02-13T10:58:37.913Z,24.15
2023-02-13T10:59:37.857Z,24.19
2023-02-13T11:00:37.788Z,24.23
2023-02-13T11:01:37.757Z,24.25
2023-02-13T11:02:37.694Z,24.26
2023-02-13T11:03:37.619Z,24.27
2023-02-13T11:04:37.591Z,24.29
2023-02-13T11:05:37.489Z,24.32
2023-02-13T11:06:37.445Z,24.34
2023-02-13T11:07:39.501Z,24.34
2023-02-13T11:08:37.333Z,24.33
2023-02-13T11:09:37.275Z,24.34
2023-02-13T11:10:37.208Z,24.36
2023-02-13T11:11:37.807Z,24.37
2023-02-13T11:12:37.101Z,24.36
2023-02-13T11:13:37.072Z,24.35
2023-02-13T11:14:36.992Z,24.30
2023-02-13T11:15:36.963Z,24.21
2023-02-13T11:16:36.945Z,24.14
2023-02-13T11:17:36.843Z,24.08
2023-02-13T11:18:36.777Z,24.04
2023-02-13T11:19:36.761Z,24.01
2023-02-13T11:20:36.677Z,23.99
2023-02-13T11:21:37.431Z,23.97
2023-02-13T11:22:36.578Z,23.95
2023-02-13T11:23:36.521Z,23.93
2023-02-13T11:24:36.455Z,23.92
2023-02-13T11:25:36.434Z,23.92
2023-02-13T11:26:36.357Z,23.92
2023-02-13T11:27:36.344Z,23.92
2023-02-13T11:28:36.315Z,23.91
2023-02-13T11:29:36.210Z,23.90
2023-02-13T11:30:36.168Z,23.87
2023-02-13T11:31:36.347Z,23.85
2023-02-13T11:32:36.076Z,23.82
2023-02-13T11:33:36.028Z,23.79
2023-02-13T11:34:36.014Z,23.77
2023-02-13T11:35:35.933Z,23.75
2023-02-13T11:36:35.897Z,23.73
2023-02-13T11:37:35.896Z,23.73
2023-02-13T11:38:35.800Z,23.74
2023-02-13T11:39:35.770Z,23.75
2023-02-13T11:40:35.713Z,23.76
2023-02-13T11:41:35.657Z,23.78
2023-02-13T11:42:35.622Z,23.79
2023-02-13T11:43:35.606Z,23.81
2023-02-13T11:44:35.529Z,23.82
2023-02-13T11:45:35.470Z,23.83
2023-02-13T11:46:35.490Z,23.83
2023-02-13T11:47:35.437Z,23.83
2023-02-13T11:49:02.574Z,23.39
2023-02-13T11:50:03.537Z,23.44
2023-02-13T11:51:03.530Z,23.51
2023-02-13T11:52:03.517Z,23.57
2023-02-13T11:53:03.518Z,23.61
2023-02-13T11:54:03.536Z,23.63
2023-02-13T11:55:05.302Z,23.64
2023-02-13T11:56:03.444Z,23.65
2023-02-13T11:57:05.302Z,23.67
2023-02-13T11:58:03.389Z,23.69
2023-02-13T11:59:03.509Z,23.69
2023-02-13T12:00:03.396Z,23.69
2023-02-13T12:01:03.333Z,23.69
2023-02-13T12:02:03.330Z,23.69
2023-02-13T12:03:03.469Z,23.69
2023-02-13T12:04:03.324Z,23.68
2023-02-13T12:05:03.255Z,23.65
2023-02-13T12:06:03.249Z,23.64
2023-02-13T12:07:03.197Z,23.65
2023-02-13T12:08:03.162Z,23.67
2023-02-13T12:09:03.151Z,23.69
2023-02-13T12:10:03.126Z,23.71
2023-02-13T12:11:03.107Z,23.72
2023-02-13T12:12:03.084Z,23.71
2023-02-13T12:13:03.039Z,23.70
2023-02-13T12:14:03.022Z,23.69
2023-02-13T12:15:03.017Z,23.68
2023-02-13T12:16:03.130Z,23.66
2023-02-13T12:17:02.949Z,23.66
2023-02-13T12:18:02.962Z,23.65
2023-02-13T12:19:02.918Z,23.65
2023-02-13T12:20:02.932Z,23.65
2023-02-13T12:21:02.875Z,23.65
2023-02-13T12:22:02.851Z,23.65
2023-02-13T12:23:02.870Z,23.65
2023-02-13T12:24:02.875Z,23.66
2023-02-13T12:25:02.816Z,23.66
2023-02-13T12:26:02.913Z,23.65
2023-02-13T12:27:02.787Z,23.65
2023-02-13T12:28:02.799Z,23.65
2023-02-13T12:29:02.783Z,23.66
2023-02-13T12:30:02.770Z,23.66
2023-02-13T12:31:02.794Z,23.67
2023-02-13T12:32:02.742Z,23.67
2023-02-13T12:33:02.696Z,23.67
2023-02-13T12:34:02.687Z,23.69
2023-02-13T12:35:02.637Z,23.70
2023-02-13T12:36:02.657Z,23.71
2023-02-13T12:37:02.574Z,23.72
2023-02-13T12:38:02.546Z,23.73
2023-02-13T12:39:02.507Z,23.74
2023-02-13T12:40:02.494Z,23.74
2023-02-13T12:41:02.481Z,23.74
2023-02-13T12:42:02.504Z,23.73
2023-02-13T12:43:02.404Z,23.72
2023-02-13T12:44:02.394Z,23.71
2023-02-13T12:45:02.405Z,23.70
2023-02-13T12:46:02.377Z,23.70
2023-02-13T12:47:02.309Z,23.69
2023-02-13T12:48:02.357Z,23.68
2023-02-13T12:49:02.266Z,23.67
2023-02-13T12:50:02.243Z,23.67
2023-02-13T12:51:02.237Z,23.65
2023-02-13T12:52:02.235Z,23.64
2023-02-13T12:53:02.172Z,23.63
2023-02-13T12:54:02.225Z,23.63
2023-02-13T12:55:02.146Z,23.62
2023-02-13T12:56:02.127Z,23.61
2023-02-13T12:57:02.063Z,23.61
2023-02-13T12:58:02.038Z,23.60
2023-02-13T12:59:02.007Z,23.59
2023-02-13T13:00:02.031Z,23.58
2023-02-13T13:01:02.017Z,23.57
2023-02-13T13:02:01.988Z,23.56
2023-02-13T13:03:01.901Z,23.55
2023-02-13T13:04:01.886Z,23.54
2023-02-13T13:05:01.855Z,23.53
2023-02-13T13:06:11.676Z,23.53
2023-02-13T13:07:01.797Z,23.56
2023-02-13T13:08:01.764Z,23.60
2023-02-13T13:09:01.762Z,23.63
2023-02-13T13:10:01.723Z,23.65
2023-02-13T13:11:01.700Z,23.66
2023-02-13T13:12:01.736Z,23.65
2023-02-13T13:13:01.642Z,23.64
2023-02-13T13:14:01.673Z,23.63
2023-02-13T13:15:01.600Z,23.64
2023-02-13T13:16:01.605Z,23.66
2023-02-13T13:17:01.615Z,23.67
2023-02-13T13:18:01.598Z,23.68
2023-02-13T13:19:01.497Z,23.70
2023-02-13T13:20:01.479Z,23.74
2023-02-13T13:21:01.441Z,23.78
2023-02-13T13:22:03.185Z,23.81
2023-02-13T13:23:01.401Z,23.84
2023-02-13T13:24:01.421Z,23.86
2023-02-13T13:25:01.344Z,23.88
2023-02-13T13:26:01.331Z,23.90
2023-02-13T13:27:01.301Z,23.93
2023-02-13T13:28:01.298Z,23.95
2023-02-13T13:29:01.256Z,23.97
2023-02-13T13:30:01.340Z,23.98
2023-02-13T13:31:01.850Z,23.95
2023-02-13T13:32:01.211Z,23.90
2023-02-13T13:33:01.156Z,23.86
2023-02-13T13:34:01.130Z,23.82
2023-02-13T13:35:01.107Z,23.79
2023-02-13T13:36:01.103Z,23.78
2023-02-13T13:37:01.027Z,23.77
2023-02-13T13:38:00.993Z,23.77
2023-02-13T13:39:01.868Z,23.79
2023-02-13T13:40:01.175Z,23.81
2023-02-13T13:41:01.026Z,23.83
2023-02-13T13:42:00.978Z,23.83
2023-02-13T13:43:00.876Z,23.83
2023-02-13T13:44:00.861Z,23.84
2023-02-13T13:45:00.887Z,23.84
2023-02-13T13:46:00.961Z,23.84
2023-02-13T13:47:00.908Z,23.86
2023-02-13T13:48:00.792Z,23.88
2023-02-13T13:49:00.750Z,23.91
2023-02-13T13:50:00.737Z,23.94
2023-02-13T13:51:00.859Z,23.95
2023-02-13T13:52:00.711Z,23.97
2023-02-13T13:53:00.661Z,23.98
2023-02-13T13:54:00.709Z,23.98
2023-02-13T13:55:00.757Z,23.98
2023-02-13T13:56:00.621Z,23.97
2023-02-13T13:57:00.594Z,23.97
2023-02-13T13:58:00.580Z,23.97
2023-02-13T13:59:34.492Z,21.26
2023-02-13T14:00:35.427Z,20.11
2023-02-13T14:01:35.473Z,17.99
2023-02-13T14:02:35.451Z,15.91
2023-02-13T14:03:35.379Z,14.17
2023-02-13T14:04:35.420Z,12.80
2023-02-13T14:05:35.358Z,11.76
2023-02-13T14:06:35.358Z,11.04
2023-02-13T14:07:35.327Z,10.53
2023-02-13T14:08:35.311Z,10.13
2023-02-13T14:09:35.302Z,9.80
2023-02-13T14:10:35.331Z,9.45
2023-02-13T14:11:35.278Z,9.09
2023-02-13T14:12:35.261Z,8.79
2023-02-13T14:13:35.261Z,8.57
2023-02-13T14:14:35.248Z,8.48
2023-02-13T14:15:35.263Z,8.49
2023-02-13T14:16:35.238Z,8.64
2023-02-13T14:17:35.195Z,8.87
2023-02-13T14:18:35.198Z,9.12
2023-02-13T14:19:35.189Z,9.35
2023-02-13T14:20:35.155Z,9.56
2023-02-13T14:21:35.172Z,9.68
2023-02-13T14:22:35.173Z,9.74
2023-02-13T14:23:35.130Z,9.80
2023-02-13T14:24:35.115Z,9.88
2023-02-13T14:25:35.098Z,10.00
2023-02-13T14:26:35.109Z,10.12
2023-02-13T14:27:35.077Z,10.19
2023-02-13T14:28:35.086Z,10.21
2023-02-13T14:29:35.036Z,10.21
2023-02-13T14:30:35.022Z,10.22
2023-02-13T14:31:35.228Z,10.27
2023-02-13T14:32:35.009Z,10.33
2023-02-13T14:33:34.987Z,10.37
2023-02-13T14:34:35.024Z,10.41
2023-02-13T14:35:34.975Z,10.46
2023-02-13T14:36:34.973Z,10.47
2023-02-13T14:37:34.982Z,10.44
2023-02-13T14:38:34.920Z,10.40
2023-02-13T14:39:34.915Z,10.36
2023-02-13T14:40:34.934Z,10.36
2023-02-13T14:41:34.876Z,10.43
2023-02-13T14:42:34.903Z,10.57
2023-02-13T14:43:34.876Z,10.70
2023-02-13T14:44:34.863Z,10.77
2023-02-13T14:45:34.824Z,10.89
2023-02-13T14:46:34.868Z,11.07
2023-02-13T14:47:34.809Z,11.20
2023-02-13T14:48:34.844Z,11.31
2023-02-13T14:49:34.786Z,11.37
2023-02-13T14:50:34.771Z,11.38
2023-02-13T14:51:34.762Z,11.31
2023-02-13T14:52:34.826Z,11.18
2023-02-13T14:53:34.723Z,11.07
2023-02-13T14:54:34.720Z,11.06
2023-02-13T14:55:34.698Z,11.10
2023-02-13T14:56:34.692Z,11.13
2023-02-13T14:57:34.685Z,11.12
2023-02-13T14:58:34.708Z,11.08
2023-02-13T14:59:34.657Z,11.01
2023-02-13T15:00:34.654Z,10.95
2023-02-13T15:01:34.691Z,10.90
2023-02-13T15:02:34.613Z,10.88
2023-02-13T15:03:34.606Z,10.87
2023-02-13T15:04:34.624Z,10.84
2023-02-13T15:05:34.578Z,10.76
2023-02-13T15:06:34.574Z,10.62
2023-02-13T15:07:34.564Z,10.43
2023-02-13T15:08:34.547Z,10.27
2023-02-13T15:09:34.529Z,10.21
2023-02-13T15:10:34.554Z,10.22
2023-02-13T15:11:34.503Z,10.24
2023-02-13T15:12:34.494Z,10.26
2023-02-13T15:13:34.485Z,10.29
2023-02-13T15:14:34.515Z,10.26
2023-02-13T15:15:34.462Z,10.12
2023-02-13T15:16:34.480Z,10.01
2023-02-13T15:17:34.424Z,9.92
2023-02-13T15:18:34.424Z,9.85
2023-02-13T15:19:34.408Z,9.82
2023-02-13T15:20:34.395Z,9.81
2023-02-13T15:21:34.374Z,9.80
2023-02-13T15:22:34.470Z,9.74
2023-02-13T15:23:34.347Z,9.59
2023-02-13T15:24:34.332Z,9.39
2023-02-13T15:25:34.322Z,9.21
2023-02-13T15:26:34.318Z,9.02
2023-02-13T15:27:34.295Z,8.93
2023-02-13T15:28:34.313Z,8.93
2023-02-13T15:29:47.954Z,8.92
2023-02-13T15:30:34.276Z,8.89
2023-02-13T15:31:34.347Z,8.91
2023-02-13T15:32:34.228Z,8.91
2023-02-13T15:33:34.206Z,8.83
2023-02-13T15:34:34.238Z,8.75
2023-02-13T15:35:34.192Z,8.68
2023-02-13T15:36:34.198Z,8.65
2023-02-13T15:37:34.154Z,8.64
2023-02-13T15:38:34.149Z,8.65
2023-02-13T15:39:34.134Z,8.64
2023-02-13T15:40:55.165Z,8.58
2023-02-13T15:41:34.111Z,8.50
2023-02-13T15:42:34.094Z,8.41
2023-02-13T15:43:34.114Z,8.35
2023-02-13T15:44:34.074Z,8.31
2023-02-13T15:45:34.064Z,8.27
2023-02-13T15:46:34.180Z,8.20
2023-02-13T15:47:34.038Z,8.09
2023-02-13T15:48:34.026Z,7.96
2023-02-13T15:49:34.023Z,7.88
2023-02-13T15:50:34.007Z,7.79
2023-02-13T15:51:34.017Z,7.71
2023-02-13T15:52:34.041Z,7.61
2023-02-13T15:53:33.956Z,7.51
2023-02-13T15:54:33.941Z,7.46
2023-02-13T15:55:33.928Z,7.43
2023-02-13T15:56:33.928Z,7.39
2023-02-13T15:57:34.022Z,7.35
2023-02-13T15:58:34.064Z,7.27
2023-02-13T15:59:33.905Z,7.18
2023-02-13T16:00:33.859Z,7.13
2023-02-13T16:01:33.884Z,7.06
2023-02-13T16:02:33.978Z,7.00
2023-02-13T16:03:33.814Z,6.93
2023-02-13T16:04:33.846Z,6.84
2023-02-13T16:05:39.953Z,6.77
2023-02-13T16:06:33.788Z,6.69
2023-02-13T16:07:33.787Z,6.63
2023-02-13T16:08:33.777Z,6.59
2023-02-13T16:09:33.751Z,6.54
2023-02-13T16:10:33.767Z,6.48
2023-02-13T16:11:33.733Z,6.37
2023-02-13T16:12:33.702Z,6.28
2023-02-13T16:13:33.686Z,6.22
2023-02-13T16:14:33.689Z,6.17
2023-02-13T16:15:33.679Z,6.15
2023-02-13T16:16:33.723Z,6.15
2023-02-13T16:17:33.655Z,6.16
2023-02-13T16:18:33.637Z,6.13
2023-02-13T16:19:33.611Z,6.08
2023-02-13T16:20:33.606Z,6.02
2023-02-13T16:21:33.600Z,5.96
2023-02-13T16:22:33.618Z,5.87
2023-02-13T16:23:33.574Z,5.81
2023-02-13T16:24:33.562Z,5.79
2023-02-13T16:25:33.567Z,5.74
2023-02-13T16:26:33.522Z,5.67
2023-02-13T16:27:33.528Z,5.60
2023-02-13T16:28:33.534Z,5.52
2023-02-13T16:29:33.514Z,5.45
2023-02-13T16:30:34.091Z,5.40
2023-02-13T16:31:33.604Z,5.36
2023-02-13T16:32:33.494Z,5.33
2023-02-13T16:33:33.481Z,5.31
2023-02-13T16:34:33.464Z,5.27
2023-02-13T16:35:33.426Z,5.24
2023-02-13T16:36:33.405Z,5.19
2023-02-13T16:37:33.427Z,5.16
2023-02-13T16:38:33.386Z,5.14
2023-02-13T16:39:33.379Z,5.13
2023-02-13T16:40:33.396Z,5.11
2023-02-13T16:41:33.346Z,5.09
2023-02-13T16:42:33.335Z,5.06
2023-02-13T16:43:33.314Z,5.01
2023-02-13T16:44:33.297Z,4.96
2023-02-13T16:45:33.302Z,4.91
2023-02-13T16:46:33.309Z,4.85
2023-02-13T16:47:33.271Z,4.79
2023-02-13T16:48:33.247Z,4.71
2023-02-13T16:49:33.244Z,4.66
2023-02-13T16:50:33.254Z,4.62
2023-02-13T16:51:33.229Z,4.57
2023-02-13T16:52:33.234Z,4.53
2023-02-13T16:53:34.360Z,4.49
2023-02-13T16:54:33.173Z,4.46
2023-02-13T16:55:33.163Z,4.42
2023-02-13T16:56:33.149Z,4.40
2023-02-13T16:57:33.210Z,4.37
2023-02-13T16:58:33.150Z,4.34
2023-02-13T16:59:33.125Z,4.31
2023-02-13T17:00:33.105Z,4.31
2023-02-13T17:01:33.112Z,4.31
2023-02-13T17:02:33.070Z,4.30
2023-02-13T17:03:33.076Z,4.27
2023-02-13T17:04:33.094Z,4.23
2023-02-13T17:05:33.050Z,4.19
2023-02-13T17:06:33.019Z,4.17
2023-02-13T17:07:33.017Z,4.14
2023-02-13T17:08:33.004Z,4.11
2023-02-13T17:09:32.993Z,4.07
2023-02-13T17:10:33.132Z,4.04
2023-02-13T17:11:32.962Z,4.01
2023-02-13T17:12:32.949Z,3.95
2023-02-13T17:13:32.935Z,3.91
2023-02-13T17:14:32.925Z,3.88
2023-02-13T17:15:32.930Z,3.85
2023-02-13T17:16:33.222Z,3.84
2023-02-13T17:17:32.939Z,3.84
2023-02-13T17:18:32.886Z,3.83
2023-02-13T17:19:32.853Z,3.80
2023-02-13T17:20:32.845Z,3.79
2023-02-13T17:21:32.827Z,3.79
2023-02-13T17:22:32.854Z,3.77
2023-02-13T17:23:32.798Z,3.74
2023-02-13T17:24:32.791Z,3.71
2023-02-13T17:25:32.774Z,3.67
2023-02-13T17:26:32.765Z,3.64
2023-02-13T17:27:32.760Z,3.62
2023-02-13T17:28:32.787Z,3.62
2023-02-13T17:29:32.734Z,3.61
2023-02-13T17:30:32.712Z,3.60
2023-02-13T17:31:32.872Z,3.59
2023-02-13T17:32:32.697Z,3.60
2023-02-13T17:33:32.669Z,3.59
2023-02-13T17:34:32.692Z,3.58
2023-02-13T17:35:32.647Z,3.59
2023-02-13T17:36:32.640Z,3.59
2023-02-13T17:37:32.623Z,3.58
2023-02-13T17:38:32.606Z,3.55
2023-02-13T17:39:32.596Z,3.52
2023-02-13T17:40:32.608Z,3.48
2023-02-13T17:41:32.559Z,3.46
2023-02-13T17:42:32.554Z,3.43
2023-02-13T17:43:32.551Z,3.40
2023-02-13T17:44:32.532Z,3.37
2023-02-13T17:45:32.591Z,3.33
2023-02-13T17:46:32.547Z,3.28
2023-02-13T17:47:32.492Z,3.27
2023-02-13T17:48:32.470Z,3.27
2023-02-13T17:49:32.480Z,3.25
2023-02-13T17:50:32.461Z,3.23
2023-02-13T17:51:32.460Z,3.22
2023-02-13T17:52:32.451Z,3.21
2023-02-13T17:53:32.441Z,3.18
2023-02-13T17:54:32.412Z,3.15
2023-02-13T17:55:32.399Z,3.15
2023-02-13T17:56:32.378Z,3.16
2023-02-13T17:57:32.359Z,3.17
2023-02-13T17:58:32.381Z,3.18
2023-02-13T17:59:32.348Z,3.17
2023-02-13T18:00:32.341Z,3.15
2023-02-13T18:01:32.350Z,3.12
2023-02-13T18:02:32.299Z,3.09
2023-02-13T18:03:32.289Z,3.07
2023-02-13T18:04:32.345Z,3.07
2023-02-13T18:05:32.288Z,3.07
2023-02-13T18:06:32.254Z,3.05
2023-02-13T18:07:32.228Z,3.04
2023-02-13T18:08:32.214Z,3.03
2023-02-13T18:09:32.205Z,3.02
2023-02-13T18:10:32.237Z,3.01
2023-02-13T18:11:32.187Z,3.02
2023-02-13T18:12:32.212Z,3.04
2023-02-13T18:13:32.172Z,3.05
2023-02-13T18:14:32.145Z,3.06
2023-02-13T18:15:32.213Z,3.08
2023-02-13T18:16:32.167Z,3.09
2023-02-13T18:17:32.117Z,3.07
2023-02-13T18:18:32.095Z,3.04
2023-02-13T18:19:32.092Z,3.03
2023-02-13T18:20:32.077Z,3.02
2023-02-13T18:21:32.126Z,3.00
2023-02-13T18:22:32.099Z,2.98
2023-02-13T18:23:32.032Z,2.95
2023-02-13T18:24:32.023Z,2.93
2023-02-13T18:25:32.010Z,2.92
2023-02-13T18:26:31.993Z,2.90
2023-02-13T18:27:31.987Z,2.87
2023-02-13T18:28:31.997Z,2.85
2023-02-13T18:29:31.965Z,2.84
2023-02-13T18:30:31.952Z,2.82
2023-02-13T18:31:32.049Z,2.81
2023-02-13T18:32:31.923Z,2.81
2023-02-13T18:33:31.908Z,2.82
2023-02-13T18:34:31.923Z,2.83
2023-02-13T18:35:31.911Z,2.84
2023-02-13T18:36:31.876Z,2.83
2023-02-13T18:37:31.874Z,2.81
2023-02-13T18:38:31.911Z,2.79
2023-02-13T18:39:32.714Z,2.77
2023-02-13T18:40:31.850Z,2.78
2023-02-13T18:41:31.808Z,2.79
2023-02-13T18:42:31.808Z,2.79
2023-02-13T18:43:31.782Z,2.79
2023-02-13T18:44:31.769Z,2.79
2023-02-13T18:45:31.773Z,2.77
2023-02-13T18:46:31.869Z,2.74
2023-02-13T18:47:31.730Z,2.74
2023-02-13T18:48:31.724Z,2.73
2023-02-13T18:49:31.710Z,2.73
2023-02-13T18:50:31.717Z,2.75
2023-02-13T18:51:31.706Z,2.75
2023-02-13T18:52:31.716Z,2.75
2023-02-13T18:53:31.664Z,2.75
2023-02-13T18:54:31.659Z,2.74
2023-02-13T18:55:31.638Z,2.72
2023-02-13T18:56:31.638Z,2.70
2023-02-13T18:57:31.623Z,2.68
2023-02-13T18:58:31.652Z,2.67
2023-02-13T18:59:31.592Z,2.67
2023-02-13T19:00:31.586Z,2.66
2023-02-13T19:01:31.670Z,2.66
2023-02-13T19:02:31.578Z,2.66
2023-02-13T19:03:31.533Z,2.65
2023-02-13T19:04:31.557Z,2.64
2023-02-13T19:05:31.513Z,2.64
2023-02-13T19:06:31.505Z,2.66
2023-02-13T19:07:31.490Z,2.68
2023-02-13T19:08:31.478Z,2.67
2023-02-13T19:09:31.452Z,2.65
2023-02-13T19:10:31.476Z,2.66
2023-02-13T19:11:31.448Z,2.68
2023-02-13T19:12:31.428Z,2.70
2023-02-13T19:13:31.413Z,2.70
2023-02-13T19:14:31.406Z,2.71
2023-02-13T19:15:31.490Z,2.71
2023-02-13T19:16:31.406Z,2.71
2023-02-13T19:17:31.359Z,2.70
2023-02-13T19:18:31.342Z,2.68
2023-02-13T19:19:31.337Z,2.66
2023-02-13T19:20:31.324Z,2.64
2023-02-13T19:21:31.325Z,2.64
2023-02-13T19:22:31.326Z,2.66
2023-02-13T19:23:31.293Z,2.66
2023-02-13T19:24:31.277Z,2.67
2023-02-13T19:25:31.267Z,2.66
2023-02-13T19:26:31.251Z,2.64
2023-02-13T19:27:31.286Z,2.63
2023-02-13T19:28:31.255Z,2.63
2023-02-13T19:29:31.213Z,2.64
2023-02-13T19:30:31.235Z,2.65
2023-02-13T19:31:31.340Z,2.63
2023-02-13T19:32:31.186Z,2.60
2023-02-13T19:33:31.177Z,2.57
2023-02-13T19:34:31.207Z,2.54
2023-02-13T19:35:31.137Z,2.52
2023-02-13T19:36:31.135Z,2.51
2023-02-13T19:37:42.988Z,2.51
2023-02-13T19:38:31.112Z,2.51
2023-02-13T19:39:31.092Z,2.52
2023-02-13T19:40:31.104Z,2.51
2023-02-13T19:41:31.082Z,2.50
2023-02-13T19:42:31.052Z,2.51
2023-02-13T19:43:31.066Z,2.52
2023-02-13T19:44:31.044Z,2.54
2023-02-13T19:45:31.023Z,2.56
2023-02-13T19:46:31.107Z,2.56
2023-02-13T19:47:30.992Z,2.55
2023-02-13T19:48:30.978Z,2.55
2023-02-13T19:49:31.244Z,2.53
2023-02-13T19:50:30.963Z,2.52
2023-02-13T19:51:30.977Z,2.51
2023-02-13T19:52:30.965Z,2.51
2023-02-13T19:53:30.910Z,2.52
2023-02-13T19:54:30.911Z,2.51
2023-02-13T19:55:30.888Z,2.49
2023-02-13T19:56:30.900Z,2.46
2023-02-13T19:57:30.878Z,2.46
2023-02-13T19:58:30.882Z,2.47
2023-02-13T19:59:30.851Z,2.47
2023-02-13T20:00:30.852Z,2.48
2023-02-13T20:01:30.894Z,2.48
2023-02-13T20:02:30.858Z,2.49
2023-02-13T20:03:30.793Z,2.49
2023-02-13T20:04:30.817Z,2.48
2023-02-13T20:05:30.805Z,2.46
2023-02-13T20:06:30.752Z,2.43
2023-02-13T20:07:30.745Z,2.40
2023-02-13T20:08:30.729Z,2.40
2023-02-13T20:09:30.720Z,2.40
2023-02-13T20:10:30.752Z,2.39
2023-02-13T20:11:30.704Z,2.38
2023-02-13T20:12:30.674Z,2.36
2023-02-13T20:13:30.666Z,2.33
2023-02-13T20:14:30.661Z,2.30
2023-02-13T20:15:32.367Z,2.31
2023-02-13T20:16:30.709Z,2.34
2023-02-13T20:17:30.626Z,2.36
2023-02-13T20:18:30.626Z,2.37
2023-02-13T20:19:30.622Z,2.35
2023-02-13T20:20:30.610Z,2.33
2023-02-13T20:21:30.578Z,2.31
2023-02-13T20:22:30.570Z,2.30
2023-02-13T20:23:30.539Z,2.30
2023-02-13T20:24:30.530Z,2.32
2023-02-13T20:25:30.507Z,2.34
2023-02-13T20:26:30.493Z,2.36
2023-02-13T20:27:30.505Z,2.37
2023-02-13T20:28:30.550Z,2.37
2023-02-13T20:29:30.464Z,2.38
2023-02-13T20:30:30.507Z,2.39
2023-02-13T20:31:31.251Z,2.39
2023-02-13T20:32:30.496Z,2.38
2023-02-13T20:33:30.412Z,2.37
2023-02-13T20:34:37.624Z,2.36
2023-02-13T20:35:30.396Z,2.35
2023-02-13T20:36:30.366Z,2.35
2023-02-13T20:37:30.381Z,2.34
2023-02-13T20:38:30.378Z,2.33
2023-02-13T20:39:30.339Z,2.33
2023-02-13T20:40:30.348Z,2.32
2023-02-13T20:41:30.337Z,2.29
2023-02-13T20:42:30.298Z,2.26
2023-02-13T20:43:30.300Z,2.25
2023-02-13T20:44:30.278Z,2.26
2023-02-13T20:45:30.269Z,2.28
2023-02-13T20:46:30.284Z,2.30
2023-02-13T20:47:30.233Z,2.31
2023-02-13T20:48:30.224Z,2.35
2023-02-13T20:49:30.216Z,2.41
2023-02-13T20:50:30.327Z,2.45
2023-02-13T20:51:30.194Z,2.46
2023-02-13T20:52:30.230Z,2.43
2023-02-13T20:53:30.156Z,2.39
2023-02-13T20:54:30.140Z,2.38
2023-02-13T20:55:30.132Z,2.37
2023-02-13T20:56:30.133Z,2.35
2023-02-13T20:57:30.113Z,2.33
2023-02-13T20:58:30.126Z,2.30
2023-02-13T20:59:30.090Z,2.27
2023-02-13T21:00:30.064Z,2.24
2023-02-13T21:01:30.226Z,2.22
2023-02-13T21:02:30.100Z,2.21
2023-02-13T21:03:30.097Z,2.24
2023-02-13T21:04:30.086Z,2.27
2023-02-13T21:05:30.017Z,2.27
2023-02-13T21:06:29.994Z,2.26
2023-02-13T21:07:31.749Z,2.27
2023-02-13T21:08:29.976Z,2.26
2023-02-13T21:09:29.964Z,2.24
2023-02-13T21:10:29.985Z,2.22
2023-02-13T21:11:29.921Z,2.20
2023-02-13T21:12:29.943Z,2.18
2023-02-13T21:13:29.918Z,2.16
2023-02-13T21:14:29.891Z,2.14
2023-02-13T21:15:29.886Z,2.14
2023-02-13T21:16:29.931Z,2.14
2023-02-13T21:17:29.851Z,2.15
2023-02-13T21:18:29.843Z,2.18
2023-02-13T21:19:29.847Z,2.19
2023-02-13T21:20:29.823Z,2.17
2023-02-13T21:21:29.811Z,2.16
2023-02-13T21:22:29.819Z,2.18
2023-02-13T21:23:29.786Z,2.19
2023-02-13T21:24:29.769Z,2.19
2023-02-13T21:25:29.749Z,2.20
2023-02-13T21:26:29.743Z,2.21
2023-02-13T21:27:29.755Z,2.20
2023-02-13T21:28:29.750Z,2.19
2023-02-13T21:29:29.721Z,2.19
2023-02-13T21:30:29.746Z,2.19
2023-02-13T21:31:29.785Z,2.18
2023-02-13T21:32:29.681Z,2.18
2023-02-13T21:33:29.661Z,2.20
2023-02-13T21:34:29.932Z,2.24
2023-02-13T21:35:29.626Z,2.28
2023-02-13T21:36:29.610Z,2.29
2023-02-13T21:37:29.609Z,2.27
2023-02-13T21:38:29.602Z,2.26
2023-02-13T21:39:29.597Z,2.22
2023-02-13T21:40:29.601Z,2.17
2023-02-13T21:41:29.561Z,2.15
2023-02-13T21:42:29.557Z,2.13
2023-02-13T21:43:29.542Z,2.12
2023-02-13T21:44:29.567Z,2.12
2023-02-13T21:45:29.515Z,2.13
2023-02-13T21:46:29.541Z,2.14
2023-02-13T21:47:29.535Z,2.17
2023-02-13T21:48:29.494Z,2.19
2023-02-13T21:49:29.465Z,2.19
2023-02-13T21:50:29.448Z,2.17
2023-02-13T21:51:29.436Z,2.14
2023-02-13T21:52:29.460Z,2.12
2023-02-13T21:53:29.411Z,2.13
2023-02-13T21:54:29.423Z,2.16
2023-02-13T21:55:29.389Z,2.19
2023-02-13T21:56:29.376Z,2.20
2023-02-13T21:57:29.385Z,2.21
2023-02-13T21:58:29.394Z,2.22
2023-02-13T21:59:29.344Z,2.24
2023-02-13T22:00:29.327Z,2.25
2023-02-13T22:01:29.348Z,2.25
2023-02-13T22:02:29.450Z,2.24
2023-02-13T22:03:29.284Z,2.23
2023-02-13T22:04:29.312Z,2.20
2023-02-13T22:05:29.269Z,2.15
2023-02-13T22:06:29.246Z,2.12
2023-02-13T22:07:29.235Z,2.12
2023-02-13T22:08:29.239Z,2.14
2023-02-13T22:09:29.223Z,2.15
2023-02-13T22:10:29.235Z,2.15
2023-02-13T22:11:29.203Z,2.14
2023-02-13T22:12:29.173Z,2.14
2023-02-13T22:13:29.171Z,2.16
2023-02-13T22:14:29.162Z,2.14
2023-02-13T22:15:29.145Z,2.13
2023-02-13T22:16:29.252Z,2.13
2023-02-13T22:17:29.129Z,2.16
2023-02-13T22:18:29.119Z,2.17
2023-02-13T22:19:29.131Z,2.19
2023-02-13T22:20:29.091Z,2.21
2023-02-13T22:21:29.071Z,2.23
2023-02-13T22:22:29.085Z,2.22
2023-02-13T22:23:29.048Z,2.23
2023-02-13T22:24:29.033Z,2.25
2023-02-13T22:25:29.024Z,2.25
2023-02-13T22:26:29.019Z,2.24
2023-02-13T22:27:29.024Z,2.23
2023-02-13T22:28:29.012Z,2.21
2023-02-13T22:29:28.980Z,2.17
2023-02-13T22:30:29.120Z,2.12
2023-02-13T22:31:29.075Z,2.08
2023-02-13T22:32:28.938Z,2.04
2023-02-13T22:33:28.933Z,2.04
2023-02-13T22:34:28.946Z,2.07
2023-02-13T22:35:28.893Z,2.08
2023-02-13T22:36:28.903Z,2.07
2023-02-13T22:37:28.877Z,2.06
2023-02-13T22:38:28.859Z,2.07
2023-02-13T22:39:28.837Z,2.09
2023-02-13T22:40:28.854Z,2.11
2023-02-13T22:41:28.864Z,2.12
2023-02-13T22:42:28.810Z,2.14
2023-02-13T22:43:28.803Z,2.15
2023-02-13T22:44:28.802Z,2.17
2023-02-13T22:45:28.777Z,2.17
2023-02-13T22:46:28.873Z,2.17
2023-02-13T22:47:30.010Z,2.18
2023-02-13T22:48:28.721Z,2.18
2023-02-13T22:49:28.734Z,2.16
2023-02-13T22:50:28.698Z,2.15
2023-02-13T22:51:28.690Z,2.16
2023-02-13T22:52:28.717Z,2.20
2023-02-13T22:53:28.672Z,2.20
2023-02-13T22:54:28.656Z,2.18
2023-02-13T22:55:28.633Z,2.16
2023-02-13T22:56:28.641Z,2.14
2023-02-13T22:57:28.628Z,2.10
2023-02-13T22:58:28.622Z,2.06
2023-02-13T22:59:28.585Z,2.06
2023-02-13T23:00:28.595Z,2.07
2023-02-13T23:01:28.571Z,2.07
2023-02-13T23:02:28.565Z,2.09
2023-02-13T23:03:28.526Z,2.11
2023-02-13T23:04:28.562Z,2.12
2023-02-13T23:05:28.513Z,2.15
2023-02-13T23:06:28.505Z,2.17
2023-02-13T23:07:28.472Z,2.19
2023-02-13T23:08:28.472Z,2.20
2023-02-13T23:09:28.449Z,2.20
2023-02-13T23:10:28.470Z,2.21
2023-02-13T23:11:28.429Z,2.22
2023-02-13T23:12:28.416Z,2.20
2023-02-13T23:13:28.397Z,2.16
2023-02-13T23:14:28.400Z,2.11
2023-02-13T23:15:28.442Z,2.08
2023-02-13T23:16:28.401Z,2.07
2023-02-13T23:17:28.344Z,2.07
2023-02-13T23:18:28.343Z,2.07
2023-02-13T23:19:28.323Z,2.07
2023-02-13T23:20:28.310Z,2.09
2023-02-13T23:21:28.307Z,2.14
2023-02-13T23:22:28.310Z,2.21
2023-02-13T23:23:28.295Z,2.28
2023-02-13T23:24:28.268Z,2.33
2023-02-13T23:25:28.270Z,2.38
2023-02-13T23:26:28.243Z,2.41
2023-02-13T23:27:28.231Z,2.42
2023-02-13T23:28:28.248Z,2.43
2023-02-13T23:29:28.249Z,2.42
2023-02-13T23:30:28.225Z,2.41
2023-02-13T23:31:28.330Z,2.38
2023-02-13T23:32:28.166Z,2.37
2023-02-13T23:33:28.151Z,2.36
2023-02-13T23:34:28.203Z,2.35
2023-02-13T23:35:28.132Z,2.36
2023-02-13T23:36:28.108Z,2.34
2023-02-13T23:37:28.101Z,2.31
2023-02-13T23:38:28.093Z,2.32
2023-02-13T23:39:28.064Z,2.35
2023-02-13T23:40:28.094Z,2.39
2023-02-13T23:41:28.045Z,2.41
2023-02-13T23:42:28.049Z,2.43